Latest Weather Observations for Orange Airport

IDN60801

Issued at 8:53 am EST Wednesday 22 September 2021 (issued every 10 minutes, with the page automatically refreshed every 10 minutes)

About weather observations | Map of weather stations | Latest weather observations for NSW | Other Formats
Station Details ID: 063303 Name: ORANGE AIRPORT AWS Lat: -33.38 Lon: 149.13 Height: 944.65 m
Data from the previous 72 hours. | See also: Recent months at Orange Airport
Date/Time
EST
Temp
°C
App
Temp
°C
Dew
Point
°C
Rel
Hum
%
Delta-T
°C
Wind Press
QNH
hPa
Press
MSL
hPa
Rain since
9am
mm
Dir  Spd
km/h
Gust
km/h
Spd
kts
Gust
kts
22/08:30am 6.4 0.6 2.5 76 1.7 S 22 28 12 15 1024.7 1024.3 0.2
22/08:00am 5.7 0.6 3.0 83 1.2 S 19 24 10 13 1024.6 1024.2 0.2
22/07:30am 4.4 -0.4 2.8 89 0.7 S 17 20 9 11 1024.3 1023.9 0.2
22/07:00am 3.3 -1.9 2.3 93 0.4 SSW 19 24 10 13 1023.9 1023.4 0.2
22/06:30am 2.5 -2.5 1.5 93 0.4 SSW 17 24 9 13 1023.4 1023.0 0.2
22/06:00am 2.0 -3.1 0.8 92 0.5 SSW 17 20 9 11 1023.0 1022.5 0.0
22/05:30am 1.7 -3.4 0.5 92 0.5 SSW 17 19 9 10 1022.7 1022.2 0.0
22/05:00am 1.8 -3.3 0.9 94 0.4 SSW 17 20 9 11 1022.4 1022.0 0.0
22/04:30am 1.9 -2.8 0.7 92 0.5 SSW 15 20 8 11 1022.3 1021.9 0.0
22/04:00am 1.9 -3.2 0.6 91 0.5 SSW 17 20 9 11 1022.2 1021.8 0.0
22/03:30am 1.9 -3.2 0.7 92 0.5 SSW 17 20 9 11 1022.1 1021.6 0.0
22/03:00am 1.5 -3.2 0.8 95 0.3 SSW 15 19 8 10 1022.4 1022.0 0.0
22/02:30am 1.4 -3.3 0.7 95 0.3 S 15 19 8 10 1022.8 1022.3 0.0
22/02:00am 1.1 -2.9 0.4 95 0.3 SSW 11 15 6 8 1023.1 1022.7 0.0
22/01:30am 1.6 -3.1 1.0 96 0.2 SSW 15 20 8 11 1023.4 1023.0 0.0
22/01:00am 1.7 -3.0 0.8 94 0.4 S 15 20 8 11 1023.6 1023.2 0.0
22/12:30am 2.2 -3.2 1.3 94 0.4 SSW 19 24 10 13 1023.8 1023.3 0.0
22/12:00am 2.7 -3.2 1.4 91 0.5 SW 22 32 12 17 1024.2 1023.8 0.0
 
Date/Time
EST
Temp
°C
App
Temp
°C
Dew
Point
°C
Rel
Hum
%
Delta-T
°C
Wind Press
QNH
hPa
Press
MSL
hPa
Rain since
9am
mm
Dir  Spd
km/h
Gust
km/h
Spd
kts
Gust
kts
21/11:30pm 3.2 -3.8 1.7 90 0.6 SW 28 35 15 19 1024.1 1023.7 0.0
21/11:00pm 3.5 -3.6 1.5 87 0.8 SW 28 41 15 22 1024.2 1023.8 0.0
21/10:30pm 3.8 -3.2 1.7 86 0.9 SW 28 39 15 21 1024.5 1024.1 0.0
21/10:00pm 3.8 -3.3 1.4 84 1.0 SW 28 35 15 19 1024.3 1023.9 0.0
21/09:30pm 3.5 -2.9 0.9 83 1.1 SW 24 35 13 19 1024.3 1023.9 0.0
21/09:00pm 3.4 -3.0 0.8 83 1.1 SW 24 33 13 18 1023.9 1023.4 0.0
21/08:30pm 3.3 -3.1 0.7 83 1.1 SW 24 35 13 19 1023.4 1023.0 0.0
21/08:00pm 3.6 -2.1 0.8 82 1.1 SW 20 30 11 16 1023.3 1022.9 0.0
21/07:30pm 3.7 -2.3 0.8 81 1.2 SW 22 30 12 16 1023.0 1022.5 0.0
21/07:00pm 4.0 -2.0 1.0 81 1.2 SW 22 32 12 17 1022.8 1022.3 0.0
21/06:30pm 4.1 -1.5 1.3 82 1.2 SW 20 28 11 15 1022.3 1021.9 0.0
21/06:00pm 4.5 -1.4 1.5 81 1.3 SW 22 32 12 17 1022.0 1021.5 0.0
21/05:30pm 4.6 -1.7 1.3 79 1.4 SW 24 35 13 19 1021.7 1021.2 0.0
21/05:00pm 5.1 -2.0 1.4 77 1.5 SW 28 37 15 20 1021.6 1021.1 0.0
21/04:30pm 5.6 -1.8 2.1 78 1.5 SW 30 39 16 21 1021.3 1020.9 0.0
21/04:00pm 5.8 -1.6 1.9 76 1.7 SW 30 41 16 22 1020.8 1020.3 0.0
21/03:30pm 5.8 -1.6 1.9 76 1.7 SW 30 44 16 24 1020.5 1020.0 0.0
21/03:00pm 4.9 -3.1 1.4 78 1.5 SW 33 44 18 24 1020.2 1019.7 0.0
21/02:34pm 4.9 -3.0 1.2 77 1.5 SW 32 46 17 25 1020.0 1019.5 0.0
21/02:30pm 5.8 -1.6 2.1 77 1.6 SW 30 46 16 25 1019.9 1019.4 0.0
21/02:00pm 5.1 -2.7 1.8 79 1.4 SW 32 46 17 25 1019.9 1019.4 0.0
21/01:53pm 4.8 -3.0 1.7 80 1.3 SW 32 46 17 25 1019.7 1019.2 0.0
21/01:30pm 5.0 -2.3 2.4 83 1.1 SW 30 41 16 22 1019.6 1019.1 0.0
21/01:00pm 4.0 -3.4 1.9 86 0.9 SW 30 39 16 21 1019.4 1018.8 0.0
21/12:30pm 4.3 -1.8 2.8 90 0.6 SW 24 35 13 19 1019.6 1019.1 0.0
21/12:00pm 2.0 -5.2 0.4 89 0.6 SW 28 39 15 21 1019.8 1019.3 0.0
21/11:30am 1.9 -5.3 0.4 90 0.6 SW 28 39 15 21 1019.4 1018.8 0.0
21/11:00am 1.9 -5.6 1.2 95 0.3 SW 30 43 16 23 1019.0 1018.5 0.0
21/10:30am 1.3 -5.8 1.2 99 0.0 SW 28 37 15 20 1019.0 1018.5 0.0
21/10:00am 0.6 -7.4 0.5 99 0.0 SW 32 41 17 22 1018.7 1018.2 0.0
21/09:31am 0.1 -6.8 0.0 99 0.0 SW 26 37 14 20 1018.4 1017.8 0.0
21/09:30am 0.1 -6.8 0.0 99 0.0 SW 26 35 14 19 1018.5 1018.0 0.0
21/09:21am -0.1 -7.4 -0.2 99 0.0 SW 28 39 15 21 1018.6 1018.1 0.0
21/09:00am 0.3 -7.7 0.2 99 0.0 SW 32 44 17 24 1018.3 1017.7 5.6
21/08:58am 0.1 -8.2 0.0 99 0.0 SW 33 44 18 24 1018.2 1017.6 5.6
21/08:30am -0.2 -6.8 -0.5 98 0.1 SW 24 35 13 19 1017.9 1017.4 5.6
21/08:12am -0.2 -6.8 -0.5 98 0.1 SW 24 32 13 17 1017.7 1017.2 5.4
21/08:00am -0.4 -6.7 -0.7 98 0.1 SW 22 35 12 19 1017.5 1016.9 5.2
21/07:48am -0.5 -7.9 -0.8 98 0.1 SW 28 43 15 23 1017.1 1016.5 5.2
21/07:30am -0.6 -7.3 -0.9 98 0.1 SW 24 35 13 19 1016.6 1016.0 5.2
21/07:16am -0.7 -8.2 -1.3 96 0.2 SW 28 46 15 25 1016.3 1015.7 5.2
21/07:00am -0.5 -8.9 -1.3 94 0.3 SW 33 44 18 24 1016.1 1015.5 5.2
21/06:30am -0.2 -9.0 -1.3 92 0.4 SW 35 48 19 26 1015.5 1014.9 5.2
21/06:00am -0.2 -8.4 -1.2 93 0.4 SW 32 44 17 24 1014.9 1014.3 5.2
21/05:30am 0.0 -8.8 -1.1 92 0.4 SW 35 44 19 24 1014.5 1013.9 5.2
21/05:00am 0.3 -7.5 -0.7 93 0.4 SW 30 41 16 22 1014.3 1013.7 5.2
21/04:48am 0.5 -7.6 -0.5 93 0.4 SW 32 44 17 24 1014.3 1013.7 5.2
21/04:30am 0.7 -6.6 -0.2 94 0.3 SW 28 39 15 21 1014.1 1013.5 5.2
21/04:17am 0.7 -7.4 -0.3 93 0.4 SW 32 44 17 24 1014.0 1013.4 5.2
21/04:06am 0.9 -6.8 -0.2 92 0.4 SW 30 41 16 22 1014.1 1013.5 5.2
21/04:02am 0.9 -6.8 -0.1 93 0.4 SW 30 39 16 21 1014.1 1013.5 5.2
21/04:00am 0.8 -7.3 -0.2 93 0.4 SW 32 43 17 23 1014.2 1013.6 5.2
21/03:43am 0.7 -8.0 -0.3 93 0.4 SW 35 44 19 24 1014.0 1013.4 5.2
21/03:40am 0.7 -8.0 -0.3 93 0.4 SW 35 44 19 24 1014.0 1013.4 5.2
21/03:30am 0.9 -8.5 -0.2 92 0.4 SW 39 54 21 29 1013.9 1013.2 5.2
21/03:00am 1.6 -5.9 0.9 95 0.3 SW 30 39 16 21 1013.8 1013.1 5.2
21/02:30am 1.9 -4.8 1.2 95 0.3 SW 26 39 14 21 1014.1 1013.5 5.2
21/02:00am 1.9 -5.6 1.2 95 0.3 SW 30 46 16 25 1014.1 1013.5 5.2
21/01:57am 1.9 -5.2 1.2 95 0.3 SW 28 46 15 25 1014.1 1013.5 5.2
21/01:30am 1.9 -5.3 1.0 94 0.4 SW 28 39 15 21 1014.4 1013.8 5.2
21/01:17am 2.2 -6.2 1.5 95 0.3 SW 35 46 19 25 1014.7 1014.0 5.2
21/01:02am 2.3 -5.1 1.6 95 0.3 SW 30 46 16 25 1014.5 1013.9 5.0
21/01:00am 2.6 -4.4 1.7 94 0.4 SW 28 46 15 25 1014.5 1013.9 5.0
21/12:58am 2.7 -4.3 1.8 94 0.4 SW 28 46 15 25 1014.5 1013.9 5.0
21/12:30am 3.7 -3.1 3.0 95 0.3 SW 28 37 15 20 1014.7 1014.0 4.8
21/12:00am 4.1 -1.9 3.4 95 0.3 SW 24 32 13 17 1014.9 1014.3 4.6
 
Date/Time
EST
Temp
°C
App
Temp
°C
Dew
Point
°C
Rel
Hum
%
Delta-T
°C
Wind Press
QNH
hPa
Press
MSL
hPa
Rain since
9am
mm
Dir  Spd
km/h
Gust
km/h
Spd
kts
Gust
kts
20/11:30pm 4.4 -2.3 3.5 94 0.4 SW 28 41 15 22 1015.1 1014.5 4.4
20/11:23pm 4.4 -2.7 3.7 95 0.3 WSW 30 41 16 22 1015.0 1014.4 4.4
20/11:00pm 4.4 -3.7 3.4 93 0.4 SW 35 46 19 25 1015.0 1014.4 4.4
20/10:30pm 4.1 -3.1 3.2 94 0.4 SW 30 39 16 21 1015.0 1014.4 4.4
20/10:00pm 3.9 -2.2 3.0 94 0.4 SW 24 32 13 17 1015.2 1014.6 4.4
20/09:30pm 3.9 -1.8 2.7 92 0.5 SW 22 30 12 16 1015.4 1014.8 4.4
20/09:00pm 4.2 -0.5 2.9 91 0.6 SW 17 26 9 14 1015.5 1014.9 4.4
20/08:30pm 4.2 -0.6 2.7 90 0.6 SW 17 20 9 11 1015.9 1015.3 4.4
20/08:00pm 4.0 -0.8 2.7 91 0.6 WSW 17 20 9 11 1016.3 1015.7 4.4
20/07:30pm 3.4 -3.1 2.4 93 0.4 SW 26 37 14 20 1015.5 1014.9 4.4
20/07:28pm 3.3 -3.6 2.3 93 0.4 SW 28 37 15 20 1015.5 1014.9 4.4
20/07:26pm 3.2 -3.8 2.2 93 0.4 SW 28 37 15 20 1015.6 1015.0 4.2
20/07:11pm 3.4 -4.4 2.7 95 0.3 SW 33 52 18 28 1015.9 1015.3 3.8
20/07:07pm 3.6 -4.2 3.0 96 0.3 SW 33 52 18 28 1015.7 1015.2 3.8
20/07:06pm 3.7 -4.1 3.1 96 0.3 SW 33 50 18 27 1015.7 1015.2 3.6
20/07:00pm 3.8 -3.8 3.1 95 0.3 SW 32 50 17 27 1015.9 1015.3 3.4
20/06:57pm 3.8 -3.0 2.9 94 0.4 SW 28 46 15 25 1015.7 1015.2 3.2
20/06:53pm 3.9 -3.3 3.0 94 0.4 SW 30 44 16 24 1015.6 1015.0 3.0
20/06:46pm 4.0 -4.1 3.1 94 0.4 SW 35 48 19 26 1015.6 1015.0 3.0
20/06:34pm 4.4 -2.2 4.0 97 0.2 SW 28 43 15 23 1015.5 1014.9 2.6
20/06:30pm 4.7 -1.5 4.4 98 0.1 SW 26 33 14 18 1015.6 1015.0 1.8
20/06:00pm 5.0 -2.2 4.9 99 0.0 SSW 32 43 17 23 1015.4 1014.8 1.0
20/05:30pm 5.6 -2.6 5.0 96 0.3 SW 37 50 20 27 1015.0 1014.4 0.6
20/05:00pm 7.5 1.4 6.8 95 0.3 SSW 28 37 15 20 1014.0 1013.4 0.0
20/04:32pm 8.5 2.0 6.3 86 1.1 SSW 30 43 16 23 1013.8 1013.1 0.0
20/04:30pm 8.7 2.2 6.5 86 1.1 SSW 30 46 16 25 1013.9 1013.2 0.0
20/04:17pm 9.6 1.2 5.8 77 1.8 SW 39 54 21 29 1013.7 1013.0 0.0
20/04:00pm 12.7 4.5 4.7 58 3.9 WSW 37 52 20 28 1013.2 1012.6 0.0
20/03:42pm 14.2 7.0 3.1 47 5.3 WSW 30 46 16 25 1012.9 1012.2 0.0
20/03:30pm 14.3 5.8 0.6 39 6.2 WNW 35 48 19 26 1012.8 1012.1 0.0
20/03:00pm 15.4 6.6 1.2 38 6.5 WNW 37 50 20 27 1013.0 1012.4 0.0
20/02:30pm 15.1 5.7 -0.2 35 6.8 WNW 39 48 21 26 1013.3 1012.7 0.0
20/02:03pm 16.0 7.8 2.8 41 6.3 WNW 35 56 19 30 1013.4 1012.8 0.0
20/02:00pm 16.2 8.1 3.3 42 6.2 NW 35 52 19 28 1013.8 1013.1 0.0
20/01:30pm 15.7 6.3 2.2 40 6.3 WNW 41 52 22 28 1014.3 1013.7 0.0
20/01:00pm 15.6 6.2 -0.2 34 7.1 NW 39 56 21 30 1014.8 1014.1 0.0
20/12:54pm 16.0 6.8 1.0 36 6.9 NW 39 57 21 31 1014.8 1014.1 0.0
20/12:30pm 15.4 5.1 -0.8 33 7.1 WNW 43 54 23 29 1015.2 1014.6 0.0
20/12:00pm 15.8 5.7 0.4 35 7.0 WNW 43 63 23 34 1015.7 1015.2 0.0
20/11:30am 15.2 5.6 -1.4 32 7.2 WNW 39 57 21 31 1016.3 1015.7 0.0
20/11:00am 15.0 7.2 1.9 41 6.1 WNW 32 52 17 28 1016.8 1016.3 0.0
20/10:30am 15.1 7.3 2.0 41 6.1 WNW 32 50 17 27 1017.3 1016.7 0.0
20/10:24am 14.8 6.7 -0.5 35 6.7 WNW 32 50 17 27 1017.4 1016.8 0.0
20/10:00am 14.5 6.4 0.0 37 6.4 NW 32 46 17 25 1017.5 1016.9 0.0
20/09:30am 14.3 7.6 1.2 41 6.0 WNW 26 35 14 19 1017.7 1017.2 0.0
20/09:00am 13.4 8.0 2.6 48 5.0 NW 20 30 11 16 1017.9 1017.4 0.0
20/08:30am 12.4 7.8 1.7 48 4.8 NNW 15 24 8 13 1018.2 1017.6 0.0
20/08:00am 11.2 6.7 2.2 54 4.1 NNW 15 20 8 11 1018.3 1017.7 0.0
20/07:30am 10.1 6.1 2.7 60 3.4 NW 13 17 7 9 1018.3 1017.7 0.0
20/07:00am 8.5 4.1 2.5 66 2.7 NNW 15 20 8 11 1018.3 1017.7 0.0
20/06:30am 6.5 1.9 1.6 71 2.1 NNW 15 20 8 11 1018.2 1017.6 0.0
20/06:00am 5.6 1.3 0.8 71 2.0 NNW 13 17 7 9 1018.1 1017.5 0.0
20/05:30am 6.1 1.8 1.1 70 2.1 NNW 13 15 7 8 1018.1 1017.5 0.0
20/05:00am 6.3 2.0 1.0 69 2.2 NNW 13 17 7 9 1018.3 1017.7 0.0
20/04:30am 6.2 1.1 0.9 69 2.2 NNW 17 20 9 11 1018.4 1017.8 0.0
20/04:00am 7.2 2.5 0.9 64 2.7 NNW 15 20 8 11 1018.4 1017.8 0.0
20/03:30am 6.7 1.3 1.0 67 2.4 NW 19 24 10 13 1018.5 1018.0 0.0
20/03:00am 5.4 -0.1 0.8 72 1.9 NW 19 22 10 12 1018.7 1018.2 0.0
20/02:30am 5.4 -0.2 1.0 73 1.8 NW 20 24 11 13 1019.1 1018.6 0.0
20/02:00am 5.0 -0.6 1.1 76 1.6 NW 20 22 11 12 1019.7 1019.2 0.0
20/01:30am 4.9 -0.5 1.4 78 1.5 NW 19 20 10 11 1019.9 1019.4 0.0
20/01:00am 4.8 -0.6 1.5 79 1.4 NW 19 20 10 11 1020.4 1019.9 0.0
20/12:30am 5.8 0.5 1.7 75 1.7 NW 19 20 10 11 1020.6 1020.1 0.0
20/12:00am 5.3 0.0 1.8 78 1.5 NW 19 20 10 11 1020.8 1020.3 0.0
 
Date/Time
EST
Temp
°C
App
Temp
°C
Dew
Point
°C
Rel
Hum
%
Delta-T
°C
Wind Press
QNH
hPa
Press
MSL
hPa
Rain since
9am
mm
Dir  Spd
km/h
Gust
km/h
Spd
kts
Gust
kts
19/11:30pm 4.2 -1.2 1.2 81 1.2 NW 19 20 10 11 1021.0 1020.5 0.0
19/11:00pm 5.0 -0.5 1.8 80 1.4 NW 20 22 11 12 1021.2 1020.7 0.0
19/10:30pm 4.4 -0.5 1.8 83 1.1 NW 17 19 9 10 1021.2 1020.7 0.0
19/10:00pm 4.4 -0.6 1.6 82 1.2 WNW 17 19 9 10 1021.4 1021.0 0.0
19/09:30pm 4.6 1.7 1.3 79 1.4 NW 6 7 3 4 1021.4 1021.0 0.0
19/09:00pm 5.7 3.6 1.8 76 1.7 WNW 2 7 1 4 1021.4 1021.0 0.0
19/08:30pm 5.4 2.0 1.9 78 1.5 WNW 9 11 5 6 1021.7 1021.2 0.0
19/08:00pm 6.0 2.6 2.1 76 1.7 WNW 9 9 5 5 1021.8 1021.3 0.0
19/07:30pm 6.4 3.0 2.1 74 1.9 WNW 9 11 5 6 1021.8 1021.3 0.0
19/07:00pm 6.5 3.2 2.2 74 1.9 WNW 9 13 5 7 1021.8 1021.3 0.0
19/06:30pm 7.0 3.2 1.9 70 2.2 WNW 11 13 6 7 1021.7 1021.2 0.0
19/06:00pm 8.6 4.9 2.2 64 2.8 W 11 17 6 9 1021.7 1021.2 0.0
19/05:30pm 10.4 5.0 2.3 57 3.7 WNW 20 26 11 14 1021.6 1021.1 0.0
19/05:00pm 11.5 6.2 2.8 55 4.0 WNW 20 28 11 15 1021.6 1021.1 0.0
19/04:30pm 12.1 7.0 3.9 57 3.9 WNW 20 28 11 15 1021.3 1020.9 0.0
19/04:00pm 12.7 7.6 4.2 56 4.1 WNW 20 32 11 17 1021.2 1020.7 0.0
19/03:30pm 12.9 7.7 3.3 52 4.5 W 20 30 11 16 1021.3 1020.9 0.0
19/03:00pm 12.7 6.0 1.7 47 5.0 W 26 33 14 18 1021.8 1021.3 0.0
19/02:30pm 13.0 7.3 2.6 49 4.8 WSW 22 32 12 17 1021.9 1021.4 0.0
19/02:00pm 12.8 6.4 0.9 44 5.3 WSW 24 32 13 17 1022.2 1021.8 0.0
19/01:30pm 13.0 7.7 1.7 46 5.1 W 19 26 10 14 1022.5 1022.1 0.0
19/01:00pm 12.9 6.8 2.7 50 4.7 WSW 24 32 13 17 1023.0 1022.5 0.0
19/12:30pm 12.8 7.7 4.3 56 4.1 W 20 30 11 16 1023.4 1023.0 0.0
19/12:00pm 11.7 6.3 1.4 49 4.6 WSW 19 26 10 14 1024.0 1023.5 0.0
19/11:30am 11.6 6.0 1.5 50 4.5 WSW 20 32 11 17 1024.6 1024.2 0.0
19/11:00am 11.5 6.6 2.3 53 4.2 WNW 17 28 9 15 1024.7 1024.3 0.0
19/10:30am 11.0 5.5 1.8 53 4.1 W 20 33 11 18 1025.1 1024.7 0.0
19/10:00am 10.7 5.2 2.0 55 3.9 W 20 28 11 15 1025.3 1024.9 0.0
19/09:30am 9.3 4.4 2.2 61 3.2 NNW 17 24 9 13 1024.8 1024.4 0.0
19/09:00am 9.5 4.7 2.8 63 3.0 NW 17 22 9 12 1024.7 1024.3 7.6

Other formats

Comma delimited format used in spreadsheet applications
http://www.bom.gov.au/fwo/IDN60801/IDN60801.95726.axf

JavaScript Object Notation format (JSON) in row-major order
http://www.bom.gov.au/fwo/IDN60801/IDN60801.95726.json

Data quality

Most of these data are generated automatically and are frequently updated. Quality checks on data are not normally performed. It is possible for incorrect values to appear. Refer to information at About Latest Weather Observations and please check the disclaimer before using these data.